sensor_id;sensor_type;location;lat;lon;timestamp;P1;durP1;ratioP1;P2;durP2;ratioP2
19434;SDS011;9853;50.848;4.108;2022-08-30T00:00:50;8.93;;;3.67;;
19434;SDS011;9853;50.848;4.108;2022-08-30T00:03:08;11.18;;;3.83;;
19434;SDS011;9853;50.848;4.108;2022-08-30T00:05:11;14.73;;;3.47;;
19434;SDS011;9853;50.848;4.108;2022-08-30T00:07:16;8.98;;;3.42;;
19434;SDS011;9853;50.848;4.108;2022-08-30T00:09:16;9.55;;;3.60;;
19434;SDS011;9853;50.848;4.108;2022-08-30T00:11:21;10.02;;;4.15;;
19434;SDS011;9853;50.848;4.108;2022-08-30T00:13:24;12.10;;;3.80;;
19434;SDS011;9853;50.848;4.108;2022-08-30T00:15:25;8.45;;;3.65;;
19434;SDS011;9853;50.848;4.108;2022-08-30T00:17:28;10.32;;;3.90;;
19434;SDS011;9853;50.848;4.108;2022-08-30T00:19:28;9.23;;;4.13;;
19434;SDS011;9853;50.848;4.108;2022-08-30T00:21:29;10.65;;;3.88;;
19434;SDS011;9853;50.848;4.108;2022-08-30T00:23:30;12.20;;;3.88;;
19434;SDS011;9853;50.848;4.108;2022-08-30T00:25:32;10.40;;;4.30;;
19434;SDS011;9853;50.848;4.108;2022-08-30T00:27:33;8.57;;;4.45;;
19434;SDS011;9853;50.848;4.108;2022-08-30T00:29:34;9.02;;;4.07;;
19434;SDS011;9853;50.848;4.108;2022-08-30T00:31:34;16.50;;;4.20;;
19434;SDS011;9853;50.848;4.108;2022-08-30T00:33:35;11.60;;;3.88;;
19434;SDS011;9853;50.848;4.108;2022-08-30T00:35:36;13.68;;;4.38;;
19434;SDS011;9853;50.848;4.108;2022-08-30T00:37:39;11.20;;;4.05;;
19434;SDS011;9853;50.848;4.108;2022-08-30T00:39:41;14.15;;;4.47;;
19434;SDS011;9853;50.848;4.108;2022-08-30T00:41:41;12.52;;;4.25;;
19434;SDS011;9853;50.848;4.108;2022-08-30T00:43:42;16.23;;;5.07;;
19434;SDS011;9853;50.848;4.108;2022-08-30T00:45:43;9.55;;;4.28;;
19434;SDS011;9853;50.848;4.108;2022-08-30T00:47:44;12.13;;;4.18;;
19434;SDS011;9853;50.848;4.108;2022-08-30T00:49:47;9.65;;;4.30;;
19434;SDS011;9853;50.848;4.108;2022-08-30T00:51:51;12.70;;;4.55;;
19434;SDS011;9853;50.848;4.108;2022-08-30T00:53:53;13.48;;;4.40;;
19434;SDS011;9853;50.848;4.108;2022-08-30T00:55:55;11.27;;;5.20;;
19434;SDS011;9853;50.848;4.108;2022-08-30T00:57:59;11.27;;;4.63;;
19434;SDS011;9853;50.848;4.108;2022-08-30T01:00:04;15.13;;;5.00;;
19434;SDS011;9853;50.848;4.108;2022-08-30T01:02:06;16.10;;;4.63;;
19434;SDS011;9853;50.848;4.108;2022-08-30T01:04:07;14.70;;;4.90;;
19434;SDS011;9853;50.848;4.108;2022-08-30T01:06:09;11.23;;;4.70;;
19434;SDS011;9853;50.848;4.108;2022-08-30T01:08:10;14.68;;;5.03;;
19434;SDS011;9853;50.848;4.108;2022-08-30T01:10:11;10.00;;;4.97;;
19434;SDS011;9853;50.848;4.108;2022-08-30T01:12:13;11.70;;;4.85;;
19434;SDS011;9853;50.848;4.108;2022-08-30T01:14:13;17.33;;;5.78;;
19434;SDS011;9853;50.848;4.108;2022-08-30T01:16:16;15.30;;;5.25;;
19434;SDS011;9853;50.848;4.108;2022-08-30T01:18:17;14.45;;;5.63;;
19434;SDS011;9853;50.848;4.108;2022-08-30T01:20:19;19.67;;;5.60;;
19434;SDS011;9853;50.848;4.108;2022-08-30T01:22:35;17.42;;;6.40;;
19434;SDS011;9853;50.848;4.108;2022-08-30T01:24:42;14.40;;;5.70;;
19434;SDS011;9853;50.848;4.108;2022-08-30T01:26:46;10.73;;;5.38;;
19434;SDS011;9853;50.848;4.108;2022-08-30T01:28:47;15.23;;;6.38;;
19434;SDS011;9853;50.848;4.108;2022-08-30T01:30:52;15.85;;;6.07;;
19434;SDS011;9853;50.848;4.108;2022-08-30T01:32:55;17.30;;;6.00;;
19434;SDS011;9853;50.848;4.108;2022-08-30T01:34:59;21.73;;;6.57;;
19434;SDS011;9853;50.848;4.108;2022-08-30T01:37:00;15.55;;;6.28;;
19434;SDS011;9853;50.848;4.108;2022-08-30T01:39:01;17.13;;;6.25;;
19434;SDS011;9853;50.848;4.108;2022-08-30T01:41:35;14.57;;;6.03;;
19434;SDS011;9853;50.848;4.108;2022-08-30T01:43:30;15.43;;;5.72;;
19434;SDS011;9853;50.848;4.108;2022-08-30T01:45:31;18.55;;;5.90;;
19434;SDS011;9853;50.848;4.108;2022-08-30T01:47:32;15.02;;;6.00;;
19434;SDS011;9853;50.848;4.108;2022-08-30T01:49:33;17.38;;;5.57;;
19434;SDS011;9853;50.848;4.108;2022-08-30T01:51:33;14.38;;;6.18;;
19434;SDS011;9853;50.848;4.108;2022-08-30T01:53:34;17.55;;;6.20;;
19434;SDS011;9853;50.848;4.108;2022-08-30T01:55:35;16.13;;;5.95;;
19434;SDS011;9853;50.848;4.108;2022-08-30T01:57:37;13.52;;;5.28;;
19434;SDS011;9853;50.848;4.108;2022-08-30T01:59:39;13.48;;;5.30;;
19434;SDS011;9853;50.848;4.108;2022-08-30T02:01:42;20.83;;;6.22;;
19434;SDS011;9853;50.848;4.108;2022-08-30T02:03:43;16.10;;;6.30;;
19434;SDS011;9853;50.848;4.108;2022-08-30T02:05:44;16.20;;;6.40;;
19434;SDS011;9853;50.848;4.108;2022-08-30T02:07:45;13.30;;;5.75;;
19434;SDS011;9853;50.848;4.108;2022-08-30T02:09:46;14.90;;;6.60;;
19434;SDS011;9853;50.848;4.108;2022-08-30T02:11:47;16.85;;;6.90;;
19434;SDS011;9853;50.848;4.108;2022-08-30T02:13:48;11.57;;;6.25;;
19434;SDS011;9853;50.848;4.108;2022-08-30T02:15:48;13.68;;;6.80;;
19434;SDS011;9853;50.848;4.108;2022-08-30T02:17:49;18.40;;;7.28;;
19434;SDS011;9853;50.848;4.108;2022-08-30T02:19:50;15.60;;;5.93;;
19434;SDS011;9853;50.848;4.108;2022-08-30T02:21:51;12.68;;;6.38;;
19434;SDS011;9853;50.848;4.108;2022-08-30T02:23:51;19.77;;;7.78;;
19434;SDS011;9853;50.848;4.108;2022-08-30T02:25:52;17.02;;;6.60;;
19434;SDS011;9853;50.848;4.108;2022-08-30T02:27:53;14.50;;;7.43;;
19434;SDS011;9853;50.848;4.108;2022-08-30T02:29:54;16.00;;;7.03;;
19434;SDS011;9853;50.848;4.108;2022-08-30T02:31:55;15.05;;;7.53;;
19434;SDS011;9853;50.848;4.108;2022-08-30T02:33:55;22.02;;;7.72;;
19434;SDS011;9853;50.848;4.108;2022-08-30T02:35:56;14.07;;;7.10;;
19434;SDS011;9853;50.848;4.108;2022-08-30T02:37:57;18.05;;;7.80;;
19434;SDS011;9853;50.848;4.108;2022-08-30T02:39:58;18.83;;;6.88;;
19434;SDS011;9853;50.848;4.108;2022-08-30T02:41:58;15.77;;;7.13;;
19434;SDS011;9853;50.848;4.108;2022-08-30T02:43:59;18.45;;;7.63;;
19434;SDS011;9853;50.848;4.108;2022-08-30T02:46:00;18.48;;;7.53;;
19434;SDS011;9853;50.848;4.108;2022-08-30T02:48:01;17.50;;;7.38;;
19434;SDS011;9853;50.848;4.108;2022-08-30T02:50:03;19.45;;;7.95;;
19434;SDS011;9853;50.848;4.108;2022-08-30T02:52:05;20.38;;;8.40;;
19434;SDS011;9853;50.848;4.108;2022-08-30T02:54:06;18.73;;;7.88;;
19434;SDS011;9853;50.848;4.108;2022-08-30T02:56:07;16.95;;;7.22;;
19434;SDS011;9853;50.848;4.108;2022-08-30T02:58:08;19.23;;;8.23;;
19434;SDS011;9853;50.848;4.108;2022-08-30T03:00:11;20.15;;;8.13;;
19434;SDS011;9853;50.848;4.108;2022-08-30T03:02:14;20.48;;;8.95;;
19434;SDS011;9853;50.848;4.108;2022-08-30T03:04:15;16.80;;;8.55;;
19434;SDS011;9853;50.848;4.108;2022-08-30T03:06:16;17.67;;;7.47;;
19434;SDS011;9853;50.848;4.108;2022-08-30T03:08:17;21.08;;;8.65;;
19434;SDS011;9853;50.848;4.108;2022-08-30T03:10:18;16.90;;;6.97;;
19434;SDS011;9853;50.848;4.108;2022-08-30T03:12:19;19.75;;;8.30;;
19434;SDS011;9853;50.848;4.108;2022-08-30T03:14:19;15.70;;;7.20;;
19434;SDS011;9853;50.848;4.108;2022-08-30T03:16:20;17.50;;;7.90;;
19434;SDS011;9853;50.848;4.108;2022-08-30T03:18:22;15.80;;;7.80;;
19434;SDS011;9853;50.848;4.108;2022-08-30T03:20:23;14.85;;;7.93;;
19434;SDS011;9853;50.848;4.108;2022-08-30T03:22:24;17.10;;;7.80;;
19434;SDS011;9853;50.848;4.108;2022-08-30T03:24:25;15.93;;;7.47;;
19434;SDS011;9853;50.848;4.108;2022-08-30T03:26:25;20.20;;;7.18;;
19434;SDS011;9853;50.848;4.108;2022-08-30T03:28:26;14.60;;;7.00;;
19434;SDS011;9853;50.848;4.108;2022-08-30T03:30:26;21.10;;;8.27;;
19434;SDS011;9853;50.848;4.108;2022-08-30T03:32:28;12.82;;;6.93;;
19434;SDS011;9853;50.848;4.108;2022-08-30T03:34:28;17.80;;;7.43;;
19434;SDS011;9853;50.848;4.108;2022-08-30T03:36:29;19.60;;;7.68;;
19434;SDS011;9853;50.848;4.108;2022-08-30T03:38:31;20.58;;;8.02;;
19434;SDS011;9853;50.848;4.108;2022-08-30T03:40:32;24.88;;;8.07;;
19434;SDS011;9853;50.848;4.108;2022-08-30T03:42:33;16.27;;;8.07;;
19434;SDS011;9853;50.848;4.108;2022-08-30T03:44:34;16.58;;;7.88;;
19434;SDS011;9853;50.848;4.108;2022-08-30T03:46:34;24.48;;;8.10;;
19434;SDS011;9853;50.848;4.108;2022-08-30T03:48:35;25.65;;;8.88;;
19434;SDS011;9853;50.848;4.108;2022-08-30T03:50:36;15.80;;;8.30;;
19434;SDS011;9853;50.848;4.108;2022-08-30T03:52:36;13.85;;;7.38;;
19434;SDS011;9853;50.848;4.108;2022-08-30T03:54:37;17.40;;;7.60;;
19434;SDS011;9853;50.848;4.108;2022-08-30T03:56:39;20.27;;;8.77;;
19434;SDS011;9853;50.848;4.108;2022-08-30T03:58:40;16.35;;;8.35;;
19434;SDS011;9853;50.848;4.108;2022-08-30T04:00:41;15.38;;;8.10;;
19434;SDS011;9853;50.848;4.108;2022-08-30T04:02:41;14.18;;;7.68;;
19434;SDS011;9853;50.848;4.108;2022-08-30T04:04:42;16.98;;;7.57;;
19434;SDS011;9853;50.848;4.108;2022-08-30T04:06:43;17.25;;;7.85;;
19434;SDS011;9853;50.848;4.108;2022-08-30T04:08:43;16.58;;;7.82;;
19434;SDS011;9853;50.848;4.108;2022-08-30T04:10:45;14.15;;;7.75;;
19434;SDS011;9853;50.848;4.108;2022-08-30T04:12:47;21.10;;;7.97;;
19434;SDS011;9853;50.848;4.108;2022-08-30T04:14:48;13.38;;;7.90;;
19434;SDS011;9853;50.848;4.108;2022-08-30T04:16:49;17.77;;;8.18;;
19434;SDS011;9853;50.848;4.108;2022-08-30T04:18:50;14.02;;;8.05;;
19434;SDS011;9853;50.848;4.108;2022-08-30T04:20:51;23.42;;;7.90;;
19434;SDS011;9853;50.848;4.108;2022-08-30T04:22:52;16.40;;;7.47;;
19434;SDS011;9853;50.848;4.108;2022-08-30T04:24:53;15.63;;;8.00;;
19434;SDS011;9853;50.848;4.108;2022-08-30T04:26:54;19.48;;;8.07;;
19434;SDS011;9853;50.848;4.108;2022-08-30T04:28:54;17.70;;;7.85;;
19434;SDS011;9853;50.848;4.108;2022-08-30T04:30:55;17.52;;;8.25;;
19434;SDS011;9853;50.848;4.108;2022-08-30T04:32:56;21.33;;;8.18;;
19434;SDS011;9853;50.848;4.108;2022-08-30T04:34:57;14.77;;;8.63;;
19434;SDS011;9853;50.848;4.108;2022-08-30T04:36:58;21.38;;;8.98;;
19434;SDS011;9853;50.848;4.108;2022-08-30T04:38:59;23.35;;;8.48;;
19434;SDS011;9853;50.848;4.108;2022-08-30T04:40:59;16.27;;;8.35;;
19434;SDS011;9853;50.848;4.108;2022-08-30T04:43:01;18.63;;;8.00;;
19434;SDS011;9853;50.848;4.108;2022-08-30T04:45:03;22.02;;;8.50;;
19434;SDS011;9853;50.848;4.108;2022-08-30T04:47:06;21.13;;;9.50;;
19434;SDS011;9853;50.848;4.108;2022-08-30T04:49:08;17.15;;;8.77;;
19434;SDS011;9853;50.848;4.108;2022-08-30T04:51:10;21.00;;;9.38;;
19434;SDS011;9853;50.848;4.108;2022-08-30T04:53:13;27.85;;;8.57;;
19434;SDS011;9853;50.848;4.108;2022-08-30T04:55:15;18.60;;;8.57;;
19434;SDS011;9853;50.848;4.108;2022-08-30T04:57:16;19.98;;;8.65;;
19434;SDS011;9853;50.848;4.108;2022-08-30T04:59:16;21.13;;;8.35;;
19434;SDS011;9853;50.848;4.108;2022-08-30T05:01:19;19.25;;;9.20;;
19434;SDS011;9853;50.848;4.108;2022-08-30T05:03:25;18.65;;;8.35;;
19434;SDS011;9853;50.848;4.108;2022-08-30T05:05:26;20.20;;;8.10;;
19434;SDS011;9853;50.848;4.108;2022-08-30T05:07:38;17.60;;;9.13;;
19434;SDS011;9853;50.848;4.108;2022-08-30T05:09:39;22.38;;;8.88;;
19434;SDS011;9853;50.848;4.108;2022-08-30T05:11:40;20.60;;;9.10;;
19434;SDS011;9853;50.848;4.108;2022-08-30T05:13:42;20.90;;;9.15;;
19434;SDS011;9853;50.848;4.108;2022-08-30T05:15:43;26.80;;;8.80;;
19434;SDS011;9853;50.848;4.108;2022-08-30T05:17:44;17.63;;;9.27;;
19434;SDS011;9853;50.848;4.108;2022-08-30T05:19:45;27.95;;;10.35;;
19434;SDS011;9853;50.848;4.108;2022-08-30T05:21:46;17.60;;;9.50;;
19434;SDS011;9853;50.848;4.108;2022-08-30T05:23:46;17.75;;;10.00;;
19434;SDS011;9853;50.848;4.108;2022-08-30T05:25:48;27.15;;;9.48;;
19434;SDS011;9853;50.848;4.108;2022-08-30T05:27:49;15.93;;;9.45;;
19434;SDS011;9853;50.848;4.108;2022-08-30T05:29:51;18.80;;;9.75;;
19434;SDS011;9853;50.848;4.108;2022-08-30T05:31:52;25.33;;;9.85;;
19434;SDS011;9853;50.848;4.108;2022-08-30T05:33:53;18.55;;;8.98;;
19434;SDS011;9853;50.848;4.108;2022-08-30T05:35:55;19.67;;;9.02;;
19434;SDS011;9853;50.848;4.108;2022-08-30T05:37:55;20.10;;;10.23;;
19434;SDS011;9853;50.848;4.108;2022-08-30T05:39:56;22.13;;;10.65;;
19434;SDS011;9853;50.848;4.108;2022-08-30T05:41:58;19.90;;;9.77;;
19434;SDS011;9853;50.848;4.108;2022-08-30T05:43:59;14.02;;;9.45;;
19434;SDS011;9853;50.848;4.108;2022-08-30T05:46:01;18.27;;;9.18;;
19434;SDS011;9853;50.848;4.108;2022-08-30T05:48:05;15.88;;;10.23;;
19434;SDS011;9853;50.848;4.108;2022-08-30T05:50:06;16.27;;;9.63;;
19434;SDS011;9853;50.848;4.108;2022-08-30T05:52:07;19.58;;;9.57;;
19434;SDS011;9853;50.848;4.108;2022-08-30T05:54:09;17.63;;;9.73;;
19434;SDS011;9853;50.848;4.108;2022-08-30T05:56:11;18.17;;;9.57;;
19434;SDS011;9853;50.848;4.108;2022-08-30T05:58:14;20.10;;;9.88;;
19434;SDS011;9853;50.848;4.108;2022-08-30T06:00:15;16.98;;;9.18;;
19434;SDS011;9853;50.848;4.108;2022-08-30T06:02:17;16.83;;;9.80;;
19434;SDS011;9853;50.848;4.108;2022-08-30T06:04:17;15.77;;;9.75;;
19434;SDS011;9853;50.848;4.108;2022-08-30T06:06:18;15.23;;;9.77;;
19434;SDS011;9853;50.848;4.108;2022-08-30T06:08:19;16.45;;;8.82;;
19434;SDS011;9853;50.848;4.108;2022-08-30T06:10:21;18.58;;;9.60;;
19434;SDS011;9853;50.848;4.108;2022-08-30T06:12:21;20.42;;;9.93;;
19434;SDS011;9853;50.848;4.108;2022-08-30T06:14:22;22.40;;;10.25;;
19434;SDS011;9853;50.848;4.108;2022-08-30T06:16:24;21.10;;;9.63;;
19434;SDS011;9853;50.848;4.108;2022-08-30T06:18:26;20.55;;;9.85;;
19434;SDS011;9853;50.848;4.108;2022-08-30T06:20:27;15.70;;;10.43;;
19434;SDS011;9853;50.848;4.108;2022-08-30T06:22:28;16.92;;;8.63;;
19434;SDS011;9853;50.848;4.108;2022-08-30T06:24:28;17.98;;;10.70;;
19434;SDS011;9853;50.848;4.108;2022-08-30T06:26:29;15.23;;;9.95;;
19434;SDS011;9853;50.848;4.108;2022-08-30T06:28:31;17.17;;;10.05;;
19434;SDS011;9853;50.848;4.108;2022-08-30T06:30:32;16.20;;;9.43;;
19434;SDS011;9853;50.848;4.108;2022-08-30T06:32:33;12.57;;;9.40;;
19434;SDS011;9853;50.848;4.108;2022-08-30T06:34:34;15.65;;;9.95;;
19434;SDS011;9853;50.848;4.108;2022-08-30T06:36:35;15.75;;;9.65;;
19434;SDS011;9853;50.848;4.108;2022-08-30T06:38:36;12.75;;;9.20;;
19434;SDS011;9853;50.848;4.108;2022-08-30T06:40:38;17.08;;;9.40;;
19434;SDS011;9853;50.848;4.108;2022-08-30T06:42:38;18.13;;;9.68;;
19434;SDS011;9853;50.848;4.108;2022-08-30T06:44:39;16.17;;;9.32;;
19434;SDS011;9853;50.848;4.108;2022-08-30T06:46:40;16.55;;;9.63;;
19434;SDS011;9853;50.848;4.108;2022-08-30T06:48:40;15.68;;;9.40;;
19434;SDS011;9853;50.848;4.108;2022-08-30T06:50:41;13.68;;;9.38;;
19434;SDS011;9853;50.848;4.108;2022-08-30T06:52:43;13.93;;;9.15;;
19434;SDS011;9853;50.848;4.108;2022-08-30T06:54:44;19.17;;;9.30;;
19434;SDS011;9853;50.848;4.108;2022-08-30T06:56:45;16.20;;;9.30;;
19434;SDS011;9853;50.848;4.108;2022-08-30T06:58:46;14.68;;;9.38;;
19434;SDS011;9853;50.848;4.108;2022-08-30T07:00:47;17.13;;;9.43;;
19434;SDS011;9853;50.848;4.108;2022-08-30T07:02:48;16.13;;;9.52;;
19434;SDS011;9853;50.848;4.108;2022-08-30T07:04:48;19.13;;;8.98;;
19434;SDS011;9853;50.848;4.108;2022-08-30T07:06:49;19.63;;;9.18;;
19434;SDS011;9853;50.848;4.108;2022-08-30T07:08:50;14.80;;;8.45;;
19434;SDS011;9853;50.848;4.108;2022-08-30T07:10:51;19.38;;;9.02;;
19434;SDS011;9853;50.848;4.108;2022-08-30T07:12:53;19.00;;;9.15;;
19434;SDS011;9853;50.848;4.108;2022-08-30T07:14:54;16.13;;;8.77;;
19434;SDS011;9853;50.848;4.108;2022-08-30T07:16:54;12.70;;;8.30;;
19434;SDS011;9853;50.848;4.108;2022-08-30T07:18:55;14.00;;;8.10;;
19434;SDS011;9853;50.848;4.108;2022-08-30T07:20:58;10.85;;;8.07;;
19434;SDS011;9853;50.848;4.108;2022-08-30T07:23:07;13.43;;;8.32;;
19434;SDS011;9853;50.848;4.108;2022-08-30T07:25:08;15.77;;;8.25;;
19434;SDS011;9853;50.848;4.108;2022-08-30T07:27:09;18.60;;;8.75;;
19434;SDS011;9853;50.848;4.108;2022-08-30T07:29:10;15.27;;;8.52;;
19434;SDS011;9853;50.848;4.108;2022-08-30T07:31:11;11.45;;;7.88;;
19434;SDS011;9853;50.848;4.108;2022-08-30T07:33:12;13.63;;;8.23;;
19434;SDS011;9853;50.848;4.108;2022-08-30T07:35:13;16.33;;;8.20;;
19434;SDS011;9853;50.848;4.108;2022-08-30T07:37:14;15.60;;;8.00;;
19434;SDS011;9853;50.848;4.108;2022-08-30T07:39:15;15.85;;;8.43;;
19434;SDS011;9853;50.848;4.108;2022-08-30T07:41:17;9.80;;;7.60;;
19434;SDS011;9853;50.848;4.108;2022-08-30T07:43:23;14.90;;;8.85;;
19434;SDS011;9853;50.848;4.108;2022-08-30T07:45:24;14.15;;;7.65;;
19434;SDS011;9853;50.848;4.108;2022-08-30T07:47:24;12.63;;;7.50;;
19434;SDS011;9853;50.848;4.108;2022-08-30T07:49:25;11.05;;;7.47;;
19434;SDS011;9853;50.848;4.108;2022-08-30T07:51:26;14.30;;;7.32;;
19434;SDS011;9853;50.848;4.108;2022-08-30T07:53:27;12.63;;;7.60;;
19434;SDS011;9853;50.848;4.108;2022-08-30T07:55:28;17.85;;;7.78;;
19434;SDS011;9853;50.848;4.108;2022-08-30T07:57:29;14.88;;;7.22;;
19434;SDS011;9853;50.848;4.108;2022-08-30T07:59:32;9.18;;;6.15;;
19434;SDS011;9853;50.848;4.108;2022-08-30T08:01:33;12.65;;;6.88;;
19434;SDS011;9853;50.848;4.108;2022-08-30T08:03:34;14.48;;;7.15;;
19434;SDS011;9853;50.848;4.108;2022-08-30T08:05:37;13.75;;;6.97;;
19434;SDS011;9853;50.848;4.108;2022-08-30T08:07:42;13.40;;;6.55;;
19434;SDS011;9853;50.848;4.108;2022-08-30T08:09:43;16.13;;;6.60;;
19434;SDS011;9853;50.848;4.108;2022-08-30T08:11:44;18.73;;;6.75;;
19434;SDS011;9853;50.848;4.108;2022-08-30T08:13:45;12.48;;;6.30;;
19434;SDS011;9853;50.848;4.108;2022-08-30T08:15:48;16.92;;;6.50;;
19434;SDS011;9853;50.848;4.108;2022-08-30T08:17:49;14.18;;;6.55;;
19434;SDS011;9853;50.848;4.108;2022-08-30T08:19:49;11.32;;;5.55;;
19434;SDS011;9853;50.848;4.108;2022-08-30T08:21:50;16.00;;;6.13;;
19434;SDS011;9853;50.848;4.108;2022-08-30T08:23:55;13.18;;;5.88;;
19434;SDS011;9853;50.848;4.108;2022-08-30T08:25:56;9.75;;;5.53;;
19434;SDS011;9853;50.848;4.108;2022-08-30T08:27:57;15.88;;;5.80;;
19434;SDS011;9853;50.848;4.108;2022-08-30T08:29:58;9.90;;;5.25;;
19434;SDS011;9853;50.848;4.108;2022-08-30T08:31:58;10.27;;;6.05;;
19434;SDS011;9853;50.848;4.108;2022-08-30T08:34:00;11.73;;;5.57;;
19434;SDS011;9853;50.848;4.108;2022-08-30T08:36:01;10.43;;;5.93;;
19434;SDS011;9853;50.848;4.108;2022-08-30T08:38:02;12.93;;;5.38;;
19434;SDS011;9853;50.848;4.108;2022-08-30T08:40:04;13.50;;;5.50;;
19434;SDS011;9853;50.848;4.108;2022-08-30T08:42:16;12.88;;;5.45;;
19434;SDS011;9853;50.848;4.108;2022-08-30T08:49:10;12.40;;;5.60;;
19434;SDS011;9853;50.848;4.108;2022-08-30T08:51:11;8.23;;;5.00;;
19434;SDS011;9853;50.848;4.108;2022-08-30T08:53:33;12.25;;;4.85;;
19434;SDS011;9853;50.848;4.108;2022-08-30T08:55:37;9.52;;;5.00;;
19434;SDS011;9853;50.848;4.108;2022-08-30T08:57:41;10.75;;;5.35;;
19434;SDS011;9853;50.848;4.108;2022-08-30T08:59:43;13.45;;;6.03;;
19434;SDS011;9853;50.848;4.108;2022-08-30T09:01:44;11.63;;;5.22;;
19434;SDS011;9853;50.848;4.108;2022-08-30T09:03:46;13.48;;;5.60;;
19434;SDS011;9853;50.848;4.108;2022-08-30T09:05:47;15.27;;;6.15;;
19434;SDS011;9853;50.848;4.108;2022-08-30T09:07:51;9.68;;;5.13;;
19434;SDS011;9853;50.848;4.108;2022-08-30T09:10:02;10.15;;;5.25;;
19434;SDS011;9853;50.848;4.108;2022-08-30T09:12:04;8.38;;;4.80;;
19434;SDS011;9853;50.848;4.108;2022-08-30T09:14:09;13.43;;;4.75;;
19434;SDS011;9853;50.848;4.108;2022-08-30T09:18:49;13.07;;;5.15;;
19434;SDS011;9853;50.848;4.108;2022-08-30T09:20:49;14.60;;;4.63;;
19434;SDS011;9853;50.848;4.108;2022-08-30T09:22:51;18.15;;;4.50;;
19434;SDS011;9853;50.848;4.108;2022-08-30T09:24:53;16.67;;;5.40;;
19434;SDS011;9853;50.848;4.108;2022-08-30T09:27:11;15.00;;;4.75;;
19434;SDS011;9853;50.848;4.108;2022-08-30T09:29:15;11.57;;;4.70;;
19434;SDS011;9853;50.848;4.108;2022-08-30T09:33:18;11.50;;;4.95;;
19434;SDS011;9853;50.848;4.108;2022-08-30T09:35:21;7.93;;;4.93;;
19434;SDS011;9853;50.848;4.108;2022-08-30T09:37:27;8.25;;;4.88;;
19434;SDS011;9853;50.848;4.108;2022-08-30T09:39:49;8.38;;;4.25;;
19434;SDS011;9853;50.848;4.108;2022-08-30T09:41:49;12.88;;;4.50;;
19434;SDS011;9853;50.848;4.108;2022-08-30T09:44:04;9.75;;;4.25;;
19434;SDS011;9853;50.848;4.108;2022-08-30T09:46:08;9.80;;;4.22;;
19434;SDS011;9853;50.848;4.108;2022-08-30T09:48:20;10.80;;;5.07;;
19434;SDS011;9853;50.848;4.108;2022-08-30T09:50:26;11.60;;;4.22;;
19434;SDS011;9853;50.848;4.108;2022-08-30T09:52:44;15.05;;;4.38;;
19434;SDS011;9853;50.848;4.108;2022-08-30T09:57:13;9.75;;;4.50;;
19434;SDS011;9853;50.848;4.108;2022-08-30T10:02:00;11.50;;;4.20;;
19434;SDS011;9853;50.848;4.108;2022-08-30T10:04:20;11.18;;;4.82;;
19434;SDS011;9853;50.848;4.108;2022-08-30T10:06:43;9.75;;;4.18;;
19434;SDS011;9853;50.848;4.108;2022-08-30T10:08:53;16.27;;;4.60;;
19434;SDS011;9853;50.848;4.108;2022-08-30T10:13:41;9.98;;;3.92;;
19434;SDS011;9853;50.848;4.108;2022-08-30T10:16:14;8.90;;;4.45;;
19434;SDS011;9853;50.848;4.108;2022-08-30T10:18:39;10.20;;;4.18;;
19434;SDS011;9853;50.848;4.108;2022-08-30T10:21:02;11.38;;;3.58;;
19434;SDS011;9853;50.848;4.108;2022-08-30T10:27:22;12.30;;;2.92;;
19434;SDS011;9853;50.848;4.108;2022-08-30T10:29:27;10.98;;;3.17;;
19434;SDS011;9853;50.848;4.108;2022-08-30T10:33:52;7.78;;;3.10;;
19434;SDS011;9853;50.848;4.108;2022-08-30T10:35:59;9.20;;;3.10;;
19434;SDS011;9853;50.848;4.108;2022-08-30T10:38:05;7.15;;;3.25;;
19434;SDS011;9853;50.848;4.108;2022-08-30T10:40:28;11.50;;;2.85;;
19434;SDS011;9853;50.848;4.108;2022-08-30T10:42:52;6.70;;;2.72;;
19434;SDS011;9853;50.848;4.108;2022-08-30T10:45:00;15.65;;;3.20;;
19434;SDS011;9853;50.848;4.108;2022-08-30T10:49:29;10.35;;;3.22;;
19434;SDS011;9853;50.848;4.108;2022-08-30T10:51:36;7.75;;;2.88;;
19434;SDS011;9853;50.848;4.108;2022-08-30T10:53:45;10.35;;;3.25;;
19434;SDS011;9853;50.848;4.108;2022-08-30T10:55:57;8.85;;;2.80;;
19434;SDS011;9853;50.848;4.108;2022-08-30T10:58:03;8.43;;;2.83;;
19434;SDS011;9853;50.848;4.108;2022-08-30T11:00:09;5.22;;;3.00;;
19434;SDS011;9853;50.848;4.108;2022-08-30T11:11:52;10.65;;;2.97;;
19434;SDS011;9853;50.848;4.108;2022-08-30T11:14:10;7.78;;;3.10;;
19434;SDS011;9853;50.848;4.108;2022-08-30T11:16:16;9.90;;;2.60;;
19434;SDS011;9853;50.848;4.108;2022-08-30T11:18:19;7.35;;;2.90;;
19434;SDS011;9853;50.848;4.108;2022-08-30T11:20:22;13.15;;;2.80;;
19434;SDS011;9853;50.848;4.108;2022-08-30T11:22:31;8.50;;;2.90;;
19434;SDS011;9853;50.848;4.108;2022-08-30T11:27:08;11.90;;;3.13;;
19434;SDS011;9853;50.848;4.108;2022-08-30T11:29:48;7.72;;;2.83;;
19434;SDS011;9853;50.848;4.108;2022-08-30T11:31:49;12.40;;;3.03;;
19434;SDS011;9853;50.848;4.108;2022-08-30T11:33:51;12.48;;;2.72;;
19434;SDS011;9853;50.848;4.108;2022-08-30T11:36:01;6.97;;;2.38;;
19434;SDS011;9853;50.848;4.108;2022-08-30T11:42:34;7.47;;;2.55;;
19434;SDS011;9853;50.848;4.108;2022-08-30T11:44:37;8.32;;;2.90;;
19434;SDS011;9853;50.848;4.108;2022-08-30T11:46:39;6.63;;;2.70;;
19434;SDS011;9853;50.848;4.108;2022-08-30T11:48:41;8.90;;;2.70;;
19434;SDS011;9853;50.848;4.108;2022-08-30T11:50:57;4.50;;;2.53;;
19434;SDS011;9853;50.848;4.108;2022-08-30T12:00:39;8.30;;;2.70;;
19434;SDS011;9853;50.848;4.108;2022-08-30T12:03:00;10.85;;;3.03;;
19434;SDS011;9853;50.848;4.108;2022-08-30T12:05:06;14.20;;;3.17;;
19434;SDS011;9853;50.848;4.108;2022-08-30T12:07:07;11.43;;;2.75;;
19434;SDS011;9853;50.848;4.108;2022-08-30T12:09:11;10.13;;;2.97;;
19434;SDS011;9853;50.848;4.108;2022-08-30T12:18:00;10.18;;;2.65;;
19434;SDS011;9853;50.848;4.108;2022-08-30T12:20:40;9.55;;;2.25;;
19434;SDS011;9853;50.848;4.108;2022-08-30T12:22:44;5.20;;;2.67;;
19434;SDS011;9853;50.848;4.108;2022-08-30T12:24:48;13.18;;;3.33;;
19434;SDS011;9853;50.848;4.108;2022-08-30T12:26:51;7.25;;;2.95;;
19434;SDS011;9853;50.848;4.108;2022-08-30T12:29:05;6.82;;;2.67;;
19434;SDS011;9853;50.848;4.108;2022-08-30T12:31:08;8.70;;;3.28;;
19434;SDS011;9853;50.848;4.108;2022-08-30T12:33:12;17.33;;;3.08;;
19434;SDS011;9853;50.848;4.108;2022-08-30T12:35:24;9.23;;;2.70;;
19434;SDS011;9853;50.848;4.108;2022-08-30T12:37:29;10.23;;;3.08;;
19434;SDS011;9853;50.848;4.108;2022-08-30T12:39:31;11.35;;;2.60;;
19434;SDS011;9853;50.848;4.108;2022-08-30T12:41:32;13.82;;;2.83;;
19434;SDS011;9853;50.848;4.108;2022-08-30T12:43:35;8.15;;;2.47;;
19434;SDS011;9853;50.848;4.108;2022-08-30T12:45:42;7.38;;;2.72;;
19434;SDS011;9853;50.848;4.108;2022-08-30T12:48:04;6.78;;;2.50;;
19434;SDS011;9853;50.848;4.108;2022-08-30T12:50:07;9.00;;;2.55;;
19434;SDS011;9853;50.848;4.108;2022-08-30T12:54:30;8.70;;;2.40;;
19434;SDS011;9853;50.848;4.108;2022-08-30T12:56:44;6.35;;;2.28;;
19434;SDS011;9853;50.848;4.108;2022-08-30T12:58:48;15.60;;;2.85;;
19434;SDS011;9853;50.848;4.108;2022-08-30T13:00:50;7.80;;;3.00;;
19434;SDS011;9853;50.848;4.108;2022-08-30T13:02:52;12.40;;;2.80;;
19434;SDS011;9853;50.848;4.108;2022-08-30T13:04:54;9.02;;;3.35;;
19434;SDS011;9853;50.848;4.108;2022-08-30T13:06:58;9.45;;;2.90;;
19434;SDS011;9853;50.848;4.108;2022-08-30T13:09:00;5.28;;;2.25;;
19434;SDS011;9853;50.848;4.108;2022-08-30T13:11:07;6.45;;;2.42;;
19434;SDS011;9853;50.848;4.108;2022-08-30T13:13:10;9.85;;;2.90;;
19434;SDS011;9853;50.848;4.108;2022-08-30T13:15:26;5.47;;;2.40;;
19434;SDS011;9853;50.848;4.108;2022-08-30T13:17:31;8.60;;;3.05;;
19434;SDS011;9853;50.848;4.108;2022-08-30T13:19:33;8.90;;;2.33;;
19434;SDS011;9853;50.848;4.108;2022-08-30T13:21:55;11.57;;;2.90;;
19434;SDS011;9853;50.848;4.108;2022-08-30T13:23:58;16.55;;;3.17;;
19434;SDS011;9853;50.848;4.108;2022-08-30T13:26:07;7.45;;;2.22;;